Time;durP1;ratioP1;P1;durP2;ratioP2;P2;SDS_P1;SDS_P2;PMS_P1;PMS_P2;Temp;Humidity;BMP_temperature;BMP_pressure;BME280_temperature;BME280_humidity;BME280_pressure;Samples;Min_cycle;Max_cycle;Signal;HPM_P1;HPM_P2
2022/12/24 00:02:31;;;;;;;45.87;18.57;;;7.30;99.90;;;;;;6157399;23;20033;-85
2022/12/24 00:05:01;;;;;;;35.10;16.80;;;7.00;99.90;;;;;;6138013;23;20077;-85
2022/12/24 00:07:30;;;;;;;38.20;17.73;;;8.60;99.90;;;;;;6103673;23;20018;-86
2022/12/24 00:09:58;;;;;;;41.97;19.27;;;8.70;99.90;;;;;;6123524;23;20120;-85
2022/12/24 00:12:27;;;;;;;36.93;17.57;;;9.40;99.90;;;;;;6129066;23;20018;-85
2022/12/24 00:14:59;;;;;;;37.07;17.33;;;9.60;99.90;;;;;;6128436;23;20021;-85
2022/12/24 00:28:37;;;;;;;39.97;17.73;;;10.00;99.90;;;;;;6110875;23;20323;-85
2022/12/24 00:31:34;;;;;;;32.47;16.30;;;8.60;99.90;;;;;;6133800;23;20017;-86
2022/12/24 00:34:07;;;;;;;38.93;18.17;;;8.40;99.90;;;;;;6128308;23;20517;-85
2022/12/24 00:36:36;;;;;;;36.70;17.70;;;10.20;99.90;;;;;;6127581;23;20342;-85
2022/12/24 00:39:05;;;;;;;39.83;18.08;;;8.60;99.90;;;;;;6126873;23;20022;-85
2022/12/24 00:45:31;;;;;;;34.47;16.27;;;7.80;99.90;;;;;;6153903;23;20016;-85
2022/12/24 00:48:08;;;;;;;35.70;17.00;;;8.80;99.90;;;;;;6128856;23;20020;-85
2022/12/24 00:50:34;;;;;;;42.28;17.73;;;7.90;99.90;;;;;;6127932;23;20093;-85
2022/12/24 00:53:00;;;;;;;42.03;19.30;;;10.20;99.90;;;;;;6155374;23;20057;-85
2022/12/24 00:55:41;;;;;;;32.40;15.43;;;9.20;99.90;;;;;;6128952;23;20046;-86
2022/12/24 00:58:10;;;;;;;34.83;15.15;;;9.60;99.90;;;;;;6127770;23;20464;-86
2022/12/24 01:00:44;;;;;;;39.00;15.65;;;8.00;99.90;;;;;;6155471;23;20024;-85
2022/12/24 01:03:19;;;;;;;33.47;14.75;;;8.90;99.90;;;;;;6128186;23;20450;-85
2022/12/24 01:05:57;;;;;;;30.87;14.00;;;8.40;99.90;;;;;;6127731;23;20021;-86
2022/12/24 01:08:25;;;;;;;34.53;13.65;;;7.80;99.90;;;;;;6128473;23;20025;-85
2022/12/24 01:10:50;;;;;;;29.48;13.05;;;9.70;99.90;;;;;;6129050;23;20013;-85
2022/12/24 01:13:16;;;;;;;23.92;11.32;;;9.50;99.90;;;;;;6153747;23;20029;-85
2022/12/24 01:15:54;;;;;;;24.97;12.03;;;9.80;99.90;;;;;;6154706;23;20024;-85
2022/12/24 01:18:20;;;;;;;27.52;11.10;;;7.90;99.90;;;;;;6127549;23;20017;-84
2022/12/24 01:21:02;;;;;;;20.15;10.07;;;8.40;99.90;;;;;;6128629;23;20022;-85
2022/12/24 01:23:36;;;;;;;20.42;9.60;;;9.10;99.90;;;;;;6155647;23;20013;-85
2022/12/24 01:26:03;;;;;;;18.40;8.80;;;9.10;99.90;;;;;;6154364;23;20021;-85
2022/12/24 01:28:30;;;;;;;19.65;9.30;;;8.70;99.90;;;;;;6124853;23;20049;-85
2022/12/24 01:30:55;;;;;;;20.98;8.90;;;9.30;99.90;;;;;;6152858;23;20070;-85
2022/12/24 01:33:33;;;;;;;18.40;9.32;;;8.50;99.90;;;;;;6157562;23;20063;-85
2022/12/24 01:36:12;;;;;;;19.87;8.60;;;9.90;99.90;;;;;;6184853;23;20398;-85
2022/12/24 01:38:46;;;;;;;16.50;7.67;;;8.80;99.90;;;;;;6184991;23;20088;-85
2022/12/24 01:44:39;;;;;;;15.30;7.53;;;9.00;99.90;;;;;;6187513;23;20501;-85
2022/12/24 01:47:29;;;;;;;18.15;9.20;;;8.20;99.90;;;;;;6155941;23;20432;-85
2022/12/24 01:50:16;;;;;;;15.83;7.93;;;8.90;99.90;;;;;;6186488;23;20163;-85
2022/12/24 01:52:42;;;;;;;20.85;9.43;;;7.80;99.90;;;;;;6162971;23;20056;-85
2022/12/24 01:55:28;;;;;;;20.13;10.02;;;9.60;99.90;;;;;;6185657;23;20017;-85
2022/12/24 01:57:58;;;;;;;18.52;9.57;;;9.60;99.90;;;;;;6186182;23;20403;-85
2022/12/24 02:00:27;;;;;;;15.85;8.73;;;9.80;99.90;;;;;;6159213;23;20021;-85
2022/12/24 02:02:59;;;;;;;20.60;10.25;;;10.20;99.90;;;;;;6186731;23;20386;-85
2022/12/24 02:08:38;;;;;;;17.05;8.50;;;8.70;99.90;;;;;;6185489;23;20371;-85
2022/12/24 02:11:26;;;;;;;19.40;9.40;;;9.10;99.90;;;;;;6160350;23;20017;-85
2022/12/24 02:14:21;;;;;;;21.48;9.80;;;8.70;99.90;;;;;;6159779;23;20052;-85
2022/12/24 02:17:48;;;;;;;16.92;8.00;;;8.80;99.90;;;;;;6159667;23;20433;-84
2022/12/24 02:20:48;;;;;;;19.75;9.07;;;8.90;99.90;;;;;;6186104;23;20017;-85
2022/12/24 02:23:51;;;;;;;17.37;7.80;;;9.00;99.90;;;;;;6158089;23;20048;-85
2022/12/24 02:26:48;;;;;;;16.10;7.37;;;8.80;99.90;;;;;;6159440;23;20445;-85
2022/12/24 02:29:41;;;;;;;18.33;8.30;;;8.50;99.90;;;;;;6185290;23;20016;-85
2022/12/24 02:32:18;;;;;;;16.00;6.53;;;8.70;99.90;;;;;;6156645;23;20100;-85
2022/12/24 02:34:55;;;;;;;12.67;4.80;;;9.50;99.90;;;;;;6155228;23;20014;-85
2022/12/24 02:37:56;;;;;;;13.57;5.10;;;7.90;99.90;;;;;;6153519;23;20020;-85
2022/12/24 02:40:35;;;;;;;12.25;4.60;;;8.60;99.90;;;;;;6154253;23;20141;-85
2022/12/24 02:43:09;;;;;;;18.45;5.68;;;10.20;99.90;;;;;;6153464;23;20017;-85
2022/12/24 02:45:35;;;;;;;;;;;10.40;99.90;;;;;;6155019;23;20092;-85
2022/12/24 02:48:01;;;;;;;24.70;7.43;;;10.10;99.90;;;;;;6151022;23;19940;-85
2022/12/24 02:50:27;;;;;;;26.52;8.63;;;10.00;99.90;;;;;;6153136;23;20116;-85
2022/12/24 02:52:56;;;;;;;32.47;8.82;;;9.90;99.90;;;;;;6154214;23;20097;-85
2022/12/24 02:55:59;;;;;;;37.30;8.30;;;8.70;99.90;;;;;;6155983;23;20037;-85
2022/12/24 02:58:47;;;;;;;36.63;8.20;;;8.70;99.90;;;;;;6154147;23;20014;-86
2022/12/24 03:01:37;;;;;;;35.83;7.10;;;8.50;99.90;;;;;;6155921;23;20021;-86
2022/12/24 03:08:12;;;;;;;28.25;5.60;;;9.70;99.90;;;;;;6156000;23;20088;-85
2022/12/24 03:11:14;;;;;;;37.63;6.60;;;8.70;99.90;;;;;;6140050;23;20025;-85
2022/12/24 03:13:41;;;;;;;25.02;5.13;;;10.30;99.90;;;;;;6154716;23;20032;-86
2022/12/24 03:16:10;;;;;;;34.13;5.70;;;9.90;99.90;;;;;;6154733;23;20026;-85
2022/12/24 03:18:39;;;;;;;27.50;5.33;;;8.70;99.90;;;;;;6154590;23;20068;-85
2022/12/24 03:21:17;;;;;;;31.87;5.23;;;8.60;99.90;;;;;;6153825;23;20017;-85
2022/12/24 03:23:43;;;;;;;31.63;5.63;;;9.30;99.90;;;;;;6154806;23;20017;-85
2022/12/24 03:26:34;;;;;;;30.20;4.87;;;10.00;99.90;;;;;;6153555;23;20077;-85
2022/12/24 03:29:07;;;;;;;27.23;5.47;;;8.50;99.90;;;;;;6153734;23;20092;-85
2022/12/24 03:31:51;;;;;;;23.25;4.40;;;9.50;99.90;;;;;;6162100;23;20018;-85
2022/12/24 03:34:17;;;;;;;29.77;5.40;;;8.60;99.90;;;;;;6155727;23;20093;-84
2022/12/24 03:36:46;;;;;;;27.70;5.37;;;9.70;99.90;;;;;;6156255;23;20040;-85
2022/12/24 03:39:20;;;;;;;27.80;5.00;;;8.60;99.90;;;;;;6128633;23;20033;-86
2022/12/24 03:41:49;;;;;;;22.80;4.40;;;10.50;99.90;;;;;;6131564;23;20017;-85
2022/12/24 03:44:15;;;;;;;29.40;5.13;;;8.70;99.90;;;;;;6155877;23;20068;-85
2022/12/24 03:46:50;;;;;;;23.63;4.20;;;7.60;99.90;;;;;;6154668;23;20021;-84
2022/12/24 03:49:16;;;;;;;15.40;4.32;;;10.00;99.90;;;;;;6129070;23;20021;-86
2022/12/24 03:51:56;;;;;;;24.47;4.43;;;9.70;99.90;;;;;;6155347;23;20516;-85
2022/12/24 03:54:22;;;;;;;34.00;5.00;;;8.70;99.90;;;;;;6128102;23;20032;-85
2022/12/24 03:56:50;;;;;;;30.30;4.90;;;8.00;99.90;;;;;;6155481;23;20331;-85
2022/12/24 03:59:26;;;;;;;29.73;4.93;;;10.40;99.90;;;;;;6155133;23;20462;-85
2022/12/24 04:02:10;;;;;;;26.63;5.20;;;10.40;99.90;;;;;;6128477;23;20018;-85
2022/12/24 04:04:36;;;;;;;31.08;5.40;;;9.60;99.90;;;;;;6129636;23;20017;-85
2022/12/24 04:07:03;;;;;;;34.77;5.50;;;8.70;99.90;;;;;;6128222;23;20017;-84
2022/12/24 04:09:29;;;;;;;34.13;5.45;;;9.90;99.90;;;;;;6129336;23;20035;-85
2022/12/24 04:11:55;;;;;;;31.10;4.85;;;10.20;99.90;;;;;;6155208;23;20056;-85
2022/12/24 04:14:36;;;;;;;29.63;4.80;;;10.10;99.90;;;;;;6154332;23;20014;-85
2022/12/24 04:17:01;;;;;;;28.80;4.75;;;10.20;99.90;;;;;;6155414;23;20052;-84
2022/12/24 04:19:27;;;;;;;27.43;5.33;;;9.80;99.90;;;;;;6155122;23;20024;-85
2022/12/24 04:22:08;;;;;;;32.57;5.43;;;8.70;99.90;;;;;;6154157;23;20017;-85
2022/12/24 04:24:34;;;;;;;26.30;5.17;;;9.00;99.90;;;;;;6155689;23;20044;-85
2022/12/24 04:27:05;;;;;;;31.42;5.53;;;9.30;99.90;;;;;;6155534;23;20017;-85
2022/12/24 04:29:31;;;;;;;30.47;4.70;;;8.70;99.90;;;;;;6127836;23;20380;-85
2022/12/24 04:32:00;;;;;;;30.00;5.43;;;10.10;99.90;;;;;;6156731;23;20017;-85
2022/12/24 04:34:36;;;;;;;33.20;6.05;;;9.60;99.90;;;;;;6169844;23;20349;-84
2022/12/24 04:37:17;;;;;;;30.25;6.00;;;8.60;99.90;;;;;;6157414;23;20124;-84
2022/12/24 04:39:54;;;;;;;28.65;5.10;;;8.80;99.90;;;;;;6186865;23;20017;-85
2022/12/24 04:42:29;;;;;;;32.15;5.40;;;10.40;99.90;;;;;;6183873;23;20156;-84
2022/12/24 04:44:54;;;;;;;38.17;5.95;;;10.30;99.90;;;;;;6184742;23;20389;-84
2022/12/24 04:47:20;;;;;;;28.70;5.10;;;10.10;99.90;;;;;;6158018;23;20017;-84
2022/12/24 04:50:01;;;;;;;32.35;5.40;;;9.10;99.90;;;;;;6184640;23;20089;-85
2022/12/24 04:52:35;;;;;;;24.58;5.25;;;10.40;99.90;;;;;;6157979;23;20100;-84
2022/12/24 04:57:26;;;;;;;32.03;5.40;;;8.70;99.90;;;;;;6182419;23;20449;-85
2022/12/24 04:59:55;;;;;;;32.13;5.53;;;9.80;99.90;;;;;;6158174;23;20028;-84
2022/12/24 05:02:38;;;;;;;35.20;5.70;;;8.50;99.90;;;;;;6178404;23;20467;-85
2022/12/24 05:05:04;;;;;;;30.67;5.28;;;10.20;99.90;;;;;;6181810;23;20462;-84
2022/12/24 05:07:48;;;;;;;34.63;5.35;;;8.70;99.90;;;;;;6157574;23;20461;-84
2022/12/24 05:10:14;;;;;;;29.40;5.63;;;10.40;99.90;;;;;;6184355;23;20028;-84
2022/12/24 05:12:45;;;;;;;33.75;6.25;;;8.70;99.90;;;;;;6184574;23;20009;-84
2022/12/24 05:15:11;;;;;;;33.10;5.80;;;10.20;99.90;;;;;;6184715;23;20342;-84
2022/12/24 05:17:37;;;;;;;35.63;6.53;;;9.70;99.90;;;;;;6156916;23;20611;-84
2022/12/24 05:20:11;;;;;;;32.53;6.30;;;10.50;99.90;;;;;;6186821;23;20017;-84
2022/12/24 05:28:23;;;;;;;33.97;6.28;;;10.30;99.90;;;;;;6187732;23;20462;-85
2022/12/24 05:30:49;;;;;;;28.93;6.20;;;9.60;99.90;;;;;;6160006;23;20017;-84
2022/12/24 05:33:20;;;;;;;35.93;6.90;;;9.60;99.90;;;;;;6185553;23;20384;-84
2022/12/24 05:35:45;;;;;;;34.83;6.22;;;10.30;99.90;;;;;;6160382;23;20017;-84
2022/12/24 05:38:11;;;;;;;34.65;5.93;;;9.80;99.90;;;;;;6159431;23;20052;-84
2022/12/24 05:40:46;;;;;;;30.63;6.37;;;10.00;99.90;;;;;;6186734;23;20072;-84
2022/12/24 05:43:21;;;;;;;34.08;5.80;;;8.60;99.90;;;;;;6187100;23;20006;-84
2022/12/24 05:46:01;;;;;;;33.25;6.70;;;10.10;99.90;;;;;;6159986;23;20025;-84
2022/12/24 05:48:40;;;;;;;37.92;6.72;;;10.20;99.90;;;;;;6160637;23;20477;-84
2022/12/24 05:51:21;;;;;;;35.28;6.43;;;9.30;99.90;;;;;;6186974;23;20083;-84
2022/12/24 05:53:47;;;;;;;41.03;6.45;;;8.80;99.90;;;;;;6160016;23;20032;-83
2022/12/24 05:59:30;;;;;;;34.25;6.55;;;8.60;99.90;;;;;;6096235;23;20033;-85
2022/12/24 06:02:04;;;;;;;35.85;6.28;;;8.20;99.90;;;;;;6072086;23;20023;-84
2022/12/24 06:04:39;;;;;;;37.38;6.30;;;8.00;99.90;;;;;;6097681;23;20018;-84
2022/12/24 06:07:14;;;;;;;38.45;6.70;;;9.80;99.90;;;;;;6071935;23;20014;-84
2022/12/24 06:09:49;;;;;;;38.80;6.60;;;8.70;99.90;;;;;;6072620;23;20022;-84
2022/12/24 06:12:17;;;;;;;38.10;6.55;;;8.50;99.90;;;;;;6098476;23;20026;-84
2022/12/24 06:14:51;;;;;;;30.70;6.95;;;10.30;99.90;;;;;;6099530;23;20022;-84
2022/12/24 06:17:20;;;;;;;38.60;6.20;;;9.70;99.90;;;;;;6071935;23;20041;-84
2022/12/24 06:19:45;;;;;;;29.27;5.68;;;10.10;99.90;;;;;;6095968;23;20022;-84
2022/12/24 06:22:11;;;;;;;31.10;6.15;;;10.20;99.90;;;;;;6096868;23;20309;-84
2022/12/24 06:24:37;;;;;;;44.13;6.82;;;10.30;99.90;;;;;;6071960;23;20106;-84
2022/12/24 06:27:02;;;;;;;28.75;5.63;;;9.80;99.90;;;;;;6097575;23;20015;-84
2022/12/24 06:29:28;;;;;;;32.15;6.82;;;8.60;99.90;;;;;;6069702;23;20053;-84
2022/12/24 06:31:53;;;;;;;25.15;5.65;;;10.20;99.90;;;;;;6064910;23;20049;-84
2022/12/24 06:34:57;;;;;;;34.65;6.60;;;7.90;99.90;;;;;;6071614;23;20101;-84
2022/12/24 06:37:28;;;;;;;35.95;6.13;;;8.30;99.90;;;;;;6097914;23;20097;-84
2022/12/24 06:40:12;;;;;;;38.97;6.22;;;8.50;99.90;;;;;;6097776;23;20439;-84
2022/12/24 06:42:37;;;;;;;32.00;5.75;;;8.50;99.90;;;;;;6097158;23;20021;-84
2022/12/24 06:45:07;;;;;;;28.88;5.97;;;9.80;99.90;;;;;;6071888;23;20022;-84
2022/12/24 06:47:32;;;;;;;29.75;6.07;;;8.40;99.90;;;;;;6070977;23;20022;-84
2022/12/24 06:50:04;;;;;;;28.80;5.47;;;9.80;99.90;;;;;;6071105;23;20034;-84
2022/12/24 06:52:30;;;;;;;28.73;5.63;;;8.50;99.90;;;;;;6071795;23;20021;-84
2022/12/24 06:55:05;;;;;;;30.85;5.43;;;8.50;99.90;;;;;;6097796;23;20424;-84
2022/12/24 06:57:58;;;;;;;26.55;5.10;;;8.50;99.90;;;;;;6102079;23;20102;-84
2022/12/24 07:00:32;;;;;;;31.88;5.70;;;8.50;99.90;;;;;;6126363;23;20018;-84
2022/12/24 07:02:58;;;;;;;34.63;6.53;;;9.40;99.90;;;;;;6126192;23;20028;-84
2022/12/24 07:05:30;;;;;;;31.20;5.53;;;9.90;99.90;;;;;;6126680;23;20010;-84
2022/12/24 07:08:08;;;;;;;42.43;9.90;;;9.20;99.90;;;;;;6101715;23;20038;-84
2022/12/24 07:10:50;;;;;;;46.10;14.80;;;8.30;99.90;;;;;;6125938;23;20029;-84
2022/12/24 07:13:21;;;;;;;53.42;24.17;;;9.20;99.90;;;;;;6100007;23;20018;-84
2022/12/24 07:16:08;;;;;;;43.75;12.82;;;9.60;99.90;;;;;;6126995;23;20024;-84
2022/12/24 07:18:55;;;;;;;26.42;6.22;;;9.10;99.90;;;;;;6125481;23;20053;-84
2022/12/24 07:21:30;;;;;;;34.53;7.85;;;9.00;99.90;;;;;;6126454;23;20025;-84
2022/12/24 07:23:55;;;;;;;36.45;10.10;;;8.30;99.90;;;;;;6099813;23;20450;-84
2022/12/24 07:26:27;;;;;;;26.30;5.22;;;9.00;99.90;;;;;;6100104;23;20093;-84
2022/12/24 07:28:53;;;;;;;37.78;7.90;;;8.20;99.90;;;;;;6126480;23;20342;-84
2022/12/24 07:31:24;;;;;;;37.05;11.82;;;9.20;99.90;;;;;;6099151;23;20056;-84
2022/12/24 07:33:59;;;;;;;38.92;12.90;;;9.40;99.90;;;;;;6120375;23;20022;-84
2022/12/24 07:36:28;;;;;;;32.00;6.10;;;9.50;99.90;;;;;;6099822;23;20076;-84
2022/12/24 07:38:56;;;;;;;31.27;5.60;;;9.60;99.90;;;;;;6099487;23;20022;-84
2022/12/24 07:41:22;;;;;;;38.13;15.97;;;9.70;99.90;;;;;;6126201;23;20021;-84
2022/12/24 07:43:48;;;;;;;35.47;7.63;;;8.10;99.90;;;;;;6100333;23;20101;-83
2022/12/24 07:46:32;;;;;;;58.13;27.63;;;9.20;99.90;;;;;;6123602;23;20081;-83
2022/12/24 07:49:04;;;;;;;42.17;14.73;;;8.90;99.90;;;;;;6127069;23;20021;-83
2022/12/24 07:51:42;;;;;;;37.77;9.80;;;8.10;99.90;;;;;;6099800;23;20450;-83
2022/12/24 07:54:07;;;;;;;38.47;9.23;;;7.40;99.90;;;;;;6099167;23;20041;-83
2022/12/24 07:56:33;;;;;;;31.63;8.17;;;7.60;99.90;;;;;;6126108;23;20014;-83
2022/12/24 07:58:59;;;;;;;41.35;9.00;;;9.30;99.90;;;;;;6099526;23;20049;-83
2022/12/24 08:01:34;;;;;;;48.72;17.38;;;9.30;99.90;;;;;;6125066;23;20010;-82
2022/12/24 08:04:11;;;;;;;32.63;6.28;;;8.30;99.90;;;;;;6126043;23;20451;-83
2022/12/24 08:06:52;;;;;;;40.10;9.00;;;8.10;99.90;;;;;;6125159;23;20089;-85
2022/12/24 08:09:33;;;;;;;42.67;14.70;;;9.80;99.90;;;;;;6125296;23;20073;-82
2022/12/24 08:12:08;;;;;;;38.45;11.75;;;9.70;99.90;;;;;;6126220;23;20352;-83
2022/12/24 08:14:43;;;;;;;38.97;9.07;;;9.50;99.90;;;;;;6099189;23;20151;-83
2022/12/24 08:17:15;;;;;;;34.05;6.68;;;9.20;99.90;;;;;;6100339;23;20022;-82
2022/12/24 08:19:43;;;;;;;36.97;9.45;;;9.20;99.90;;;;;;6100913;23;20030;-82
2022/12/24 08:22:21;;;;;;;35.07;7.07;;;9.50;99.90;;;;;;6125414;23;20020;-83
2022/12/24 08:27:27;;;;;;;43.10;6.23;;;8.20;99.90;;;;;;6124516;23;20033;-82
2022/12/24 08:29:58;;;;;;;34.63;7.75;;;8.60;99.90;;;;;;6126325;23;20088;-84
2022/12/24 08:32:59;;;;;;;51.15;16.38;;;10.00;99.90;;;;;;6099596;23;20018;-85
2022/12/24 08:35:28;;;;;;;43.47;10.52;;;8.90;99.90;;;;;;6130551;23;20021;-84
2022/12/24 08:39:02;;;;;;;42.43;9.00;;;8.40;99.90;;;;;;6184103;23;20349;-84
2022/12/24 08:42:18;;;;;;;36.67;10.63;;;9.10;99.90;;;;;;6182532;23;20476;-86
2022/12/24 08:45:30;;;;;;;60.53;23.70;;;8.70;99.90;;;;;;6095258;23;20021;-86
2022/12/24 08:47:59;;;;;;;51.40;26.73;;;8.50;99.90;;;;;;6175648;23;20039;-85
2022/12/24 08:50:25;;;;;;;58.47;28.17;;;7.90;99.90;;;;;;6177091;23;20017;-84
2022/12/24 08:52:54;;;;;;;58.63;29.47;;;10.10;99.90;;;;;;6157579;23;20008;-84
2022/12/24 08:55:29;;;;;;;46.33;13.77;;;8.70;99.90;;;;;;6157150;23;20020;-85
2022/12/24 08:58:04;;;;;;;48.57;17.10;;;9.90;99.90;;;;;;6158327;23;20056;-84
2022/12/24 09:00:45;;;;;;;47.20;16.07;;;7.60;99.90;;;;;;6157778;23;20020;-84
2022/12/24 09:03:19;;;;;;;45.77;16.93;;;10.00;99.90;;;;;;6158335;23;20020;-85
2022/12/24 09:05:57;;;;;;;36.17;6.77;;;8.00;99.90;;;;;;6184533;23;20017;-85
2022/12/24 09:08:33;;;;;;;43.07;8.60;;;10.40;99.90;;;;;;6184723;23;20024;-85
2022/12/24 09:11:15;;;;;;;40.17;9.33;;;10.20;99.90;;;;;;6157294;23;20049;-85
2022/12/24 09:13:44;;;;;;;32.93;8.17;;;10.40;99.90;;;;;;6157785;23;20020;-84
2022/12/24 09:16:10;;;;;;;40.37;8.03;;;10.10;99.90;;;;;;6184768;23;20059;-84
2022/12/24 09:18:39;;;;;;;36.27;8.20;;;8.70;99.90;;;;;;6120983;23;20025;-84
2022/12/24 09:21:13;;;;;;;40.10;8.33;;;9.60;99.90;;;;;;6097673;23;20018;-85
2022/12/24 09:23:48;;;;;;;37.63;8.97;;;10.10;99.90;;;;;;6121367;23;20017;-84
2022/12/24 09:26:32;;;;;;;40.40;9.10;;;10.30;99.90;;;;;;6097630;23;20406;-84
2022/12/24 09:29:02;;;;;;;35.65;8.07;;;10.20;99.90;;;;;;6098116;23;20462;-84
2022/12/24 09:31:28;;;;;;;30.00;7.35;;;10.00;99.90;;;;;;6120924;23;20073;-84
2022/12/24 09:34:03;;;;;;;35.63;8.10;;;10.20;99.90;;;;;;6122430;23;20388;-84
2022/12/24 09:37:10;;;;;;;32.80;8.23;;;9.40;99.90;;;;;;6097924;23;20158;-84
2022/12/24 09:39:36;;;;;;;44.30;15.00;;;9.10;99.90;;;;;;6097123;23;20018;-85
2022/12/24 09:42:47;;;;;;;40.03;11.43;;;10.30;99.90;;;;;;6121759;23;20316;-85
2022/12/24 09:45:32;;;;;;;43.15;9.65;;;9.10;99.90;;;;;;6121431;23;20061;-84
2022/12/24 09:48:34;;;;;;;43.90;15.20;;;10.10;99.90;;;;;;6122074;23;20010;-84
2022/12/24 09:51:47;;;;;;;38.05;14.32;;;8.40;99.90;;;;;;6184665;23;20092;-85
2022/12/24 09:57:32;;;;;;;38.67;12.85;;;9.20;99.90;;;;;;6187724;23;20087;-85
2022/12/24 10:00:02;;;;;;;37.03;8.88;;;8.70;99.90;;;;;;6185896;23;20074;-86
2022/12/24 10:02:37;;;;;;;33.33;8.98;;;9.20;99.90;;;;;;6187249;23;20047;-84
2022/12/24 10:05:14;;;;;;;32.80;8.95;;;10.90;99.90;;;;;;6187452;23;20039;-84
2022/12/24 10:08:17;;;;;;;36.13;10.57;;;10.60;99.90;;;;;;6215649;23;20083;-84
2022/12/24 10:11:23;;;;;;;32.72;9.55;;;9.50;99.90;;;;;;6189282;23;20019;-85
2022/12/24 10:14:03;;;;;;;36.42;8.30;;;9.40;99.90;;;;;;6183667;23;20128;-84
2022/12/24 10:20:24;;;;;;;35.10;8.23;;;10.80;99.90;;;;;;6184411;23;20112;-84
2022/12/24 10:27:15;;;;;;;33.65;7.47;;;9.80;99.90;;;;;;6158906;23;20021;-84
2022/12/24 10:30:02;;;;;;;32.08;7.28;;;9.20;99.90;;;;;;6161825;23;20106;-83
2022/12/24 10:32:34;;;;;;;29.75;6.35;;;10.90;99.90;;;;;;6159916;23;20453;-84
2022/12/24 10:35:15;;;;;;;24.15;6.03;;;9.70;99.90;;;;;;6158187;23;20441;-84
2022/12/24 10:37:59;;;;;;;27.07;6.00;;;10.50;99.90;;;;;;6186086;23;20092;-84
2022/12/24 10:40:42;;;;;;;23.92;5.53;;;10.80;99.90;;;;;;6158954;23;20374;-85
2022/12/24 10:47:03;;;;;;;;;;;;;;;;;;;;;
2022/12/24 10:50:13;;;;;;;;;;;;;;;;;;;;;
2022/12/24 10:56:19;;;;;;;25.02;5.35;;;8.60;99.90;;;;;;6158001;23;20024;-83
2022/12/24 10:58:52;;;;;;;26.25;5.45;;;10.50;99.90;;;;;;6159396;23;20469;-83
2022/12/24 11:01:18;;;;;;;28.58;6.28;;;10.10;99.90;;;;;;6185501;23;20017;-83
2022/12/24 11:04:00;;;;;;;28.65;7.13;;;9.80;99.90;;;;;;6178244;23;20020;-82
2022/12/24 11:06:26;;;;;;;28.45;6.07;;;9.60;99.90;;;;;;6158696;23;20092;-83
2022/12/24 11:09:23;;;;;;;27.20;5.93;;;9.10;99.90;;;;;;6185641;23;20048;-84
2022/12/24 11:11:49;;;;;;;29.20;6.40;;;9.60;99.90;;;;;;6185382;23;20013;-82
2022/12/24 11:14:17;;;;;;;27.35;6.00;;;10.40;99.90;;;;;;6158572;23;20092;-82
2022/12/24 11:16:55;;;;;;;31.17;7.32;;;10.10;99.90;;;;;;6158185;23;20009;-82
2022/12/24 11:19:47;;;;;;;29.13;6.93;;;10.80;99.90;;;;;;6184403;23;20453;-82
2022/12/24 11:22:25;;;;;;;28.13;7.00;;;8.70;99.90;;;;;;6182591;23;20028;-83
2022/12/24 11:25:00;;;;;;;32.63;6.80;;;9.90;99.90;;;;;;6185099;23;20012;-83
2022/12/24 11:27:57;;;;;;;36.72;7.47;;;10.10;99.90;;;;;;6158655;23;20075;-83
2022/12/24 11:30:31;;;;;;;33.00;7.20;;;9.40;99.90;;;;;;6157827;23;20706;-83
2022/12/24 11:33:22;;;;;;;34.70;7.88;;;9.10;99.90;;;;;;6158958;23;20473;-83
2022/12/24 11:35:56;;;;;;;30.65;7.40;;;9.40;99.90;;;;;;6185044;23;20323;-83
2022/12/24 11:38:25;;;;;;;39.00;8.13;;;9.40;99.90;;;;;;6159197;23;20017;-83
2022/12/24 11:41:10;;;;;;;33.35;7.05;;;11.00;99.90;;;;;;6158752;23;20013;-83
2022/12/24 11:43:50;;;;;;;37.85;8.00;;;8.90;99.90;;;;;;6184897;23;20017;-83
2022/12/24 11:46:35;;;;;;;34.45;8.20;;;10.90;99.90;;;;;;6184504;23;20020;-83
2022/12/24 11:49:11;;;;;;;44.90;7.68;;;11.10;99.90;;;;;;6158463;23;20071;-83
2022/12/24 11:51:39;;;;;;;31.45;6.88;;;9.50;99.90;;;;;;6157999;23;20461;-83
2022/12/24 11:54:33;;;;;;;34.58;8.32;;;9.50;99.90;;;;;;6185375;23;20013;-83
2022/12/24 11:57:13;;;;;;;39.60;9.30;;;9.50;99.90;;;;;;6158770;23;20013;-83
2022/12/24 11:59:46;;;;;;;36.20;7.50;;;10.70;99.90;;;;;;6182356;23;20017;-83
2022/12/24 12:02:36;;;;;;;38.80;7.73;;;10.60;99.90;;;;;;6184780;23;20013;-83
2022/12/24 12:05:10;;;;;;;33.17;6.43;;;10.10;99.90;;;;;;6184945;23;20021;-83
2022/12/24 12:07:36;;;;;;;;;;;9.60;99.90;;;;;;6183924;23;20013;-83
2022/12/24 12:10:29;;;;;;;41.03;13.25;;;10.80;99.90;;;;;;6157424;23;20030;-84
2022/12/24 12:13:23;;;;;;;26.75;7.25;;;9.60;99.90;;;;;;6150876;23;20017;-83
2022/12/24 12:16:02;;;;;;;47.88;14.60;;;10.40;99.90;;;;;;6158362;23;20025;-82
2022/12/24 12:18:37;;;;;;;48.05;19.25;;;10.70;99.90;;;;;;6157919;23;20391;-81
2022/12/24 12:21:51;;;;;;;32.58;7.28;;;9.70;99.90;;;;;;6157663;23;20437;-82
2022/12/24 12:24:44;;;;;;;35.75;9.65;;;8.90;99.90;;;;;;6184593;23;20017;-83
2022/12/24 12:27:48;;;;;;;36.58;10.95;;;9.70;99.90;;;;;;6157642;23;20021;-84
2022/12/24 12:30:19;;;;;;;29.90;8.18;;;9.70;99.90;;;;;;6158026;23;20028;-83
2022/12/24 12:35:37;;;;;;;34.50;8.15;;;9.70;99.90;;;;;;6213952;23;20095;-83
2022/12/24 12:38:22;;;;;;;29.58;5.95;;;10.00;99.90;;;;;;6187161;23;20021;-82
2022/12/24 12:41:40;;;;;;;31.10;7.32;;;9.90;99.90;;;;;;6213508;23;20048;-83
2022/12/24 12:44:59;;;;;;;36.15;7.80;;;9.50;99.90;;;;;;6213682;23;20027;-82
2022/12/24 12:47:49;;;;;;;27.40;7.25;;;9.70;99.90;;;;;;6186684;23;20021;-82
2022/12/24 12:50:35;;;;;;;27.65;11.77;;;9.70;99.90;;;;;;6186854;23;20441;-82
2022/12/24 12:53:47;;;;;;;34.58;7.18;;;9.70;99.90;;;;;;6187757;23;20341;-82
2022/12/24 12:56:29;;;;;;;26.60;7.57;;;9.70;99.90;;;;;;6213353;23;20024;-83
2022/12/24 12:59:14;;;;;;;32.20;9.65;;;10.40;99.90;;;;;;6165934;23;20016;-82
2022/12/24 13:02:32;;;;;;;28.17;7.60;;;10.70;99.90;;;;;;6157271;23;20053;-84
2022/12/24 13:05:36;;;;;;;28.67;9.15;;;10.00;99.90;;;;;;6156761;23;20023;-83
2022/12/24 13:08:32;;;;;;;31.48;7.22;;;10.00;99.90;;;;;;6185183;23;20035;-83
2022/12/24 13:11:23;;;;;;;22.35;6.70;;;9.80;99.90;;;;;;6157320;23;20523;-82
2022/12/24 13:14:13;;;;;;;32.30;6.75;;;9.90;99.90;;;;;;6158052;23;20017;-83
2022/12/24 13:16:47;;;;;;;26.15;6.43;;;9.80;99.90;;;;;;6156698;23;20019;-82
2022/12/24 13:19:32;;;;;;;24.80;6.07;;;9.80;99.90;;;;;;6154704;23;20021;-83
2022/12/24 13:22:15;;;;;;;;;;;9.70;99.90;;;;;;6158949;23;20075;-82
2022/12/24 13:24:55;;;;;;;25.10;6.07;;;10.20;99.90;;;;;;6132662;23;19967;-82
2022/12/24 13:27:32;;;;;;;29.55;5.72;;;11.20;99.90;;;;;;6183974;23;20380;-82
2022/12/24 13:30:32;;;;;;;24.80;5.72;;;11.40;99.90;;;;;;6157169;23;20032;-82
2022/12/24 13:32:58;;;;;;;26.17;4.75;;;9.90;99.90;;;;;;6157968;23;20020;-81
2022/12/24 13:35:23;;;;;;;31.55;6.45;;;11.10;99.90;;;;;;6180455;23;20012;-82
2022/12/24 13:37:50;;;;;;;22.73;5.65;;;10.00;99.90;;;;;;6183427;23;20060;-81
2022/12/24 13:40:26;;;;;;;19.20;4.75;;;10.00;99.90;;;;;;6157181;23;20028;-82
2022/12/24 13:42:57;;;;;;;23.92;6.43;;;9.90;99.90;;;;;;6159816;23;20024;-82
2022/12/24 13:45:32;;;;;;;21.30;5.90;;;9.80;99.90;;;;;;6158309;23;20072;-84
2022/12/24 13:48:06;;;;;;;21.42;4.68;;;10.70;99.90;;;;;;6185253;23;20013;-82
2022/12/24 13:50:43;;;;;;;19.83;4.65;;;9.60;99.90;;;;;;6185991;23;20103;-80
2022/12/24 13:53:41;;;;;;;24.02;4.97;;;9.60;99.90;;;;;;6159467;23;20458;-84
2022/12/24 13:56:13;;;;;;;17.45;4.22;;;9.50;99.90;;;;;;6186030;23;20322;-81
2022/12/24 13:58:51;;;;;;;18.27;4.95;;;9.70;99.90;;;;;;6158769;23;20084;-81
2022/12/24 14:01:20;;;;;;;20.50;4.45;;;10.10;99.90;;;;;;6159866;23;20341;-81
2022/12/24 14:03:50;;;;;;;16.73;4.28;;;9.30;99.90;;;;;;6159530;23;20009;-80
2022/12/24 14:06:32;;;;;;;19.85;4.43;;;10.20;99.90;;;;;;6158394;23;20024;-80
2022/12/24 14:09:17;;;;;;;19.08;4.28;;;9.20;99.90;;;;;;6186788;23;20017;-81
2022/12/24 14:11:52;;;;;;;24.73;4.55;;;9.20;99.90;;;;;;6186784;23;20109;-81
2022/12/24 14:14:37;;;;;;;22.08;8.07;;;9.20;99.90;;;;;;6185642;23;20040;-81
2022/12/24 14:17:25;;;;;;;22.47;6.03;;;9.20;99.90;;;;;;6186363;23;20021;-81
2022/12/24 14:19:56;;;;;;;28.75;12.43;;;9.10;99.90;;;;;;6158167;23;20017;-81
2022/12/24 14:22:44;;;;;;;27.38;11.52;;;9.10;99.90;;;;;;6184719;23;20017;-82
2022/12/24 14:25:17;;;;;;;38.75;19.98;;;10.10;99.90;;;;;;6181992;23;20025;-81
2022/12/24 14:27:58;;;;;;;24.50;10.07;;;9.10;99.90;;;;;;6158237;23;20017;-82
2022/12/24 14:30:26;;;;;;;33.08;13.15;;;9.10;99.90;;;;;;6159222;23;20338;-82
2022/12/24 14:32:52;;;;;;;26.42;11.68;;;9.10;99.90;;;;;;6158704;23;20075;-83
2022/12/24 14:35:37;;;;;;;19.88;7.88;;;9.00;99.90;;;;;;6157500;23;20013;-82
2022/12/24 14:38:05;;;;;;;17.67;4.87;;;9.00;99.90;;;;;;6152968;23;20385;-81
2022/12/24 14:40:33;;;;;;;20.50;4.80;;;9.00;99.90;;;;;;6157631;23;20024;-82